sensor_id;sensor_type;location;lat;lon;timestamp;temperature;humidity
63771;DHT22;60282;43.862;18.430;2022-11-20T00:01:22;8.10;99.90
63771;DHT22;60282;43.862;18.430;2022-11-20T00:03:50;8.10;99.90
63771;DHT22;60282;43.862;18.430;2022-11-20T00:06:17;8.10;99.90
63771;DHT22;60282;43.862;18.430;2022-11-20T00:08:46;8.10;99.90
63771;DHT22;60282;43.862;18.430;2022-11-20T00:11:16;8.10;99.90
63771;DHT22;60282;43.862;18.430;2022-11-20T00:13:47;9.80;99.90
63771;DHT22;60282;43.862;18.430;2022-11-20T00:16:15;8.20;99.90
63771;DHT22;60282;43.862;18.430;2022-11-20T00:18:41;7.60;99.90
63771;DHT22;60282;43.862;18.430;2022-11-20T00:21:14;8.20;99.90
63771;DHT22;60282;43.862;18.430;2022-11-20T00:23:40;8.10;99.90
63771;DHT22;60282;43.862;18.430;2022-11-20T00:26:14;8.10;99.90
63771;DHT22;60282;43.862;18.430;2022-11-20T00:28:42;8.10;99.90
63771;DHT22;60282;43.862;18.430;2022-11-20T00:31:09;8.00;99.90
63771;DHT22;60282;43.862;18.430;2022-11-20T00:33:35;8.00;99.90
63771;DHT22;60282;43.862;18.430;2022-11-20T00:36:03;8.00;99.90
63771;DHT22;60282;43.862;18.430;2022-11-20T00:38:30;8.00;99.90
63771;DHT22;60282;43.862;18.430;2022-11-20T00:41:01;8.00;99.90
63771;DHT22;60282;43.862;18.430;2022-11-20T00:43:28;8.00;99.90
63771;DHT22;60282;43.862;18.430;2022-11-20T00:46:21;8.00;99.90
63771;DHT22;60282;43.862;18.430;2022-11-20T00:48:47;8.00;99.90
63771;DHT22;60282;43.862;18.430;2022-11-20T00:51:19;8.00;99.90
63771;DHT22;60282;43.862;18.430;2022-11-20T00:53:45;8.00;99.90
63771;DHT22;60282;43.862;18.430;2022-11-20T00:56:13;8.40;99.90
63771;DHT22;60282;43.862;18.430;2022-11-20T00:58:41;8.10;99.90
63771;DHT22;60282;43.862;18.430;2022-11-20T01:01:19;8.10;99.90
63771;DHT22;60282;43.862;18.430;2022-11-20T01:03:48;8.10;99.90
63771;DHT22;60282;43.862;18.430;2022-11-20T01:06:19;8.10;99.90
63771;DHT22;60282;43.862;18.430;2022-11-20T01:08:46;8.10;99.90
63771;DHT22;60282;43.862;18.430;2022-11-20T01:11:15;8.10;99.90
63771;DHT22;60282;43.862;18.430;2022-11-20T01:13:42;8.20;99.90
63771;DHT22;60282;43.862;18.430;2022-11-20T01:16:15;8.20;99.90
63771;DHT22;60282;43.862;18.430;2022-11-20T01:18:45;8.10;99.90
63771;DHT22;60282;43.862;18.430;2022-11-20T01:21:16;8.00;99.90
63771;DHT22;60282;43.862;18.430;2022-11-20T01:23:43;8.10;99.90
63771;DHT22;60282;43.862;18.430;2022-11-20T01:26:12;8.00;99.90
63771;DHT22;60282;43.862;18.430;2022-11-20T01:28:39;8.00;99.90
63771;DHT22;60282;43.862;18.430;2022-11-20T01:33:44;8.00;99.90
63771;DHT22;60282;43.862;18.430;2022-11-20T01:36:11;8.00;99.90
63771;DHT22;60282;43.862;18.430;2022-11-20T01:38:38;8.00;99.90
63771;DHT22;60282;43.862;18.430;2022-11-20T01:41:04;8.00;99.90
63771;DHT22;60282;43.862;18.430;2022-11-20T01:43:30;8.00;99.90
63771;DHT22;60282;43.862;18.430;2022-11-20T01:46:17;8.00;99.90
63771;DHT22;60282;43.862;18.430;2022-11-20T01:48:54;8.00;99.90
63771;DHT22;60282;43.862;18.430;2022-11-20T01:51:39;8.10;99.90
63771;DHT22;60282;43.862;18.430;2022-11-20T01:54:11;8.10;99.90
63771;DHT22;60282;43.862;18.430;2022-11-20T01:56:41;8.10;99.90
63771;DHT22;60282;43.862;18.430;2022-11-20T01:59:09;8.10;99.90
63771;DHT22;60282;43.862;18.430;2022-11-20T02:01:37;8.10;99.90
63771;DHT22;60282;43.862;18.430;2022-11-20T02:04:04;8.10;99.90
63771;DHT22;60282;43.862;18.430;2022-11-20T02:06:43;8.10;99.90
63771;DHT22;60282;43.862;18.430;2022-11-20T02:09:09;8.10;99.90
63771;DHT22;60282;43.862;18.430;2022-11-20T02:11:35;8.10;99.90
63771;DHT22;60282;43.862;18.430;2022-11-20T02:14:01;8.20;99.90
63771;DHT22;60282;43.862;18.430;2022-11-20T02:16:30;8.20;99.90
63771;DHT22;60282;43.862;18.430;2022-11-20T02:18:58;8.10;99.90
63771;DHT22;60282;43.862;18.430;2022-11-20T02:22:02;8.10;99.90
63771;DHT22;60282;43.862;18.430;2022-11-20T02:24:21;8.00;99.90
63771;DHT22;60282;43.862;18.430;2022-11-20T02:27:09;8.80;99.90
63771;DHT22;60282;43.862;18.430;2022-11-20T02:32:26;8.00;99.90
63771;DHT22;60282;43.862;18.430;2022-11-20T02:34:52;7.90;99.90
63771;DHT22;60282;43.862;18.430;2022-11-20T02:37:19;7.80;99.90
63771;DHT22;60282;43.862;18.430;2022-11-20T02:39:47;7.60;99.90
63771;DHT22;60282;43.862;18.430;2022-11-20T02:42:14;7.80;99.90
63771;DHT22;60282;43.862;18.430;2022-11-20T02:44:40;7.80;99.90
63771;DHT22;60282;43.862;18.430;2022-11-20T02:47:06;7.70;99.90
63771;DHT22;60282;43.862;18.430;2022-11-20T02:49:33;7.80;99.90
63771;DHT22;60282;43.862;18.430;2022-11-20T02:51:59;7.80;99.90
63771;DHT22;60282;43.862;18.430;2022-11-20T02:54:25;7.80;99.90
63771;DHT22;60282;43.862;18.430;2022-11-20T02:56:51;7.70;99.90
63771;DHT22;60282;43.862;18.430;2022-11-20T02:59:17;7.80;99.90
63771;DHT22;60282;43.862;18.430;2022-11-20T03:01:43;7.80;99.90
63771;DHT22;60282;43.862;18.430;2022-11-20T03:04:09;7.80;99.90
63771;DHT22;60282;43.862;18.430;2022-11-20T03:06:35;7.80;99.90
63771;DHT22;60282;43.862;18.430;2022-11-20T03:09:01;7.90;99.90
63771;DHT22;60282;43.862;18.430;2022-11-20T03:11:26;7.90;99.90
63771;DHT22;60282;43.862;18.430;2022-11-20T03:13:52;8.00;99.90
63771;DHT22;60282;43.862;18.430;2022-11-20T03:16:20;8.00;99.90
63771;DHT22;60282;43.862;18.430;2022-11-20T03:18:46;8.00;99.90
63771;DHT22;60282;43.862;18.430;2022-11-20T03:21:13;8.00;99.90
63771;DHT22;60282;43.862;18.430;2022-11-20T03:23:40;8.00;99.90
63771;DHT22;60282;43.862;18.430;2022-11-20T03:26:18;8.00;99.90
63771;DHT22;60282;43.862;18.430;2022-11-20T03:28:50;8.10;99.90
63771;DHT22;60282;43.862;18.430;2022-11-20T03:31:18;8.10;99.90
63771;DHT22;60282;43.862;18.430;2022-11-20T03:33:44;8.10;99.90
63771;DHT22;60282;43.862;18.430;2022-11-20T03:36:12;8.20;99.90
63771;DHT22;60282;43.862;18.430;2022-11-20T03:38:38;8.20;99.90
63771;DHT22;60282;43.862;18.430;2022-11-20T03:41:09;8.10;99.90
63771;DHT22;60282;43.862;18.430;2022-11-20T03:43:35;8.10;99.90
63771;DHT22;60282;43.862;18.430;2022-11-20T03:46:02;8.10;99.90
63771;DHT22;60282;43.862;18.430;2022-11-20T03:48:30;8.10;99.90
63771;DHT22;60282;43.862;18.430;2022-11-20T03:53:48;9.90;99.90
63771;DHT22;60282;43.862;18.430;2022-11-20T03:56:15;8.10;99.90
63771;DHT22;60282;43.862;18.430;2022-11-20T03:58:42;5.50;99.90
63771;DHT22;60282;43.862;18.430;2022-11-20T04:03:34;8.10;99.90
63771;DHT22;60282;43.862;18.430;2022-11-20T04:06:13;8.10;99.90
63771;DHT22;60282;43.862;18.430;2022-11-20T04:08:40;8.00;99.90
63771;DHT22;60282;43.862;18.430;2022-11-20T04:13:38;8.10;99.90
63771;DHT22;60282;43.862;18.430;2022-11-20T04:16:05;8.00;99.90
63771;DHT22;60282;43.862;18.430;2022-11-20T04:18:31;8.00;99.90
63771;DHT22;60282;43.862;18.430;2022-11-20T04:20:57;8.00;99.90
63771;DHT22;60282;43.862;18.430;2022-11-20T04:23:24;8.00;99.90
63771;DHT22;60282;43.862;18.430;2022-11-20T04:25:50;8.00;99.90
63771;DHT22;60282;43.862;18.430;2022-11-20T04:28:15;8.00;99.90
63771;DHT22;60282;43.862;18.430;2022-11-20T04:30:41;8.00;99.90
63771;DHT22;60282;43.862;18.430;2022-11-20T04:33:07;8.00;99.90
63771;DHT22;60282;43.862;18.430;2022-11-20T04:35:37;8.00;99.90
63771;DHT22;60282;43.862;18.430;2022-11-20T04:38:04;8.00;99.90
63771;DHT22;60282;43.862;18.430;2022-11-20T04:40:30;8.10;99.90
63771;DHT22;60282;43.862;18.430;2022-11-20T04:42:57;8.10;99.90
63771;DHT22;60282;43.862;18.430;2022-11-20T04:45:23;8.10;99.90
63771;DHT22;60282;43.862;18.430;2022-11-20T04:47:49;8.10;99.90
63771;DHT22;60282;43.862;18.430;2022-11-20T04:50:15;8.10;99.90
63771;DHT22;60282;43.862;18.430;2022-11-20T04:52:42;8.10;99.90
63771;DHT22;60282;43.862;18.430;2022-11-20T04:55:08;8.20;99.90
63771;DHT22;60282;43.862;18.430;2022-11-20T04:57:34;8.10;99.90
63771;DHT22;60282;43.862;18.430;2022-11-20T05:00:00;8.10;99.90
63771;DHT22;60282;43.862;18.430;2022-11-20T05:02:25;8.10;99.90
63771;DHT22;60282;43.862;18.430;2022-11-20T05:04:51;8.10;99.90
63771;DHT22;60282;43.862;18.430;2022-11-20T05:07:17;8.20;99.90
63771;DHT22;60282;43.862;18.430;2022-11-20T05:09:42;8.20;99.90
63771;DHT22;60282;43.862;18.430;2022-11-20T05:12:08;8.20;99.90
63771;DHT22;60282;43.862;18.430;2022-11-20T05:14:34;8.20;99.90
63771;DHT22;60282;43.862;18.430;2022-11-20T05:17:00;8.20;99.90
63771;DHT22;60282;43.862;18.430;2022-11-20T05:19:26;8.20;99.90
63771;DHT22;60282;43.862;18.430;2022-11-20T05:21:52;8.20;99.90
63771;DHT22;60282;43.862;18.430;2022-11-20T05:24:17;7.80;99.90
63771;DHT22;60282;43.862;18.430;2022-11-20T05:26:43;8.20;99.90
63771;DHT22;60282;43.862;18.430;2022-11-20T05:29:10;8.20;99.90
63771;DHT22;60282;43.862;18.430;2022-11-20T05:31:39;8.20;99.90
63771;DHT22;60282;43.862;18.430;2022-11-20T05:34:05;8.10;99.90
63771;DHT22;60282;43.862;18.430;2022-11-20T05:36:32;8.10;99.90
63771;DHT22;60282;43.862;18.430;2022-11-20T05:38:58;8.10;99.90
63771;DHT22;60282;43.862;18.430;2022-11-20T05:41:25;8.00;99.90
63771;DHT22;60282;43.862;18.430;2022-11-20T05:43:51;7.90;99.90
63771;DHT22;60282;43.862;18.430;2022-11-20T05:46:20;7.90;99.90
63771;DHT22;60282;43.862;18.430;2022-11-20T05:48:46;7.90;99.90
63771;DHT22;60282;43.862;18.430;2022-11-20T05:51:15;7.90;99.90
63771;DHT22;60282;43.862;18.430;2022-11-20T05:56:11;7.90;99.90
63771;DHT22;60282;43.862;18.430;2022-11-20T06:01:24;7.90;99.90
63771;DHT22;60282;43.862;18.430;2022-11-20T06:06:18;7.90;99.90
63771;DHT22;60282;43.862;18.430;2022-11-20T06:11:12;8.00;99.90
63771;DHT22;60282;43.862;18.430;2022-11-20T06:13:39;7.90;99.90
63771;DHT22;60282;43.862;18.430;2022-11-20T06:16:05;7.90;99.90
63771;DHT22;60282;43.862;18.430;2022-11-20T06:18:31;8.00;99.90
63771;DHT22;60282;43.862;18.430;2022-11-20T06:21:29;8.00;99.90
63771;DHT22;60282;43.862;18.430;2022-11-20T06:26:23;8.00;99.90
63771;DHT22;60282;43.862;18.430;2022-11-20T06:28:50;7.80;99.90
63771;DHT22;60282;43.862;18.430;2022-11-20T06:31:18;8.00;99.90
63771;DHT22;60282;43.862;18.430;2022-11-20T06:33:44;8.00;99.90
63771;DHT22;60282;43.862;18.430;2022-11-20T06:36:12;8.00;99.90
63771;DHT22;60282;43.862;18.430;2022-11-20T06:38:40;8.10;99.90
63771;DHT22;60282;43.862;18.430;2022-11-20T06:41:08;8.10;99.90
63771;DHT22;60282;43.862;18.430;2022-11-20T06:43:35;7.90;99.90
63771;DHT22;60282;43.862;18.430;2022-11-20T06:48:28;8.20;99.90
63771;DHT22;60282;43.862;18.430;2022-11-20T06:50:54;8.60;99.90
63771;DHT22;60282;43.862;18.430;2022-11-20T06:53:23;8.20;99.90
63771;DHT22;60282;43.862;18.430;2022-11-20T06:55:50;8.20;99.90
63771;DHT22;60282;43.862;18.430;2022-11-20T06:58:16;8.20;99.90
63771;DHT22;60282;43.862;18.430;2022-11-20T07:00:42;8.20;99.90
63771;DHT22;60282;43.862;18.430;2022-11-20T07:03:10;8.20;99.90
63771;DHT22;60282;43.862;18.430;2022-11-20T07:05:36;7.90;99.90
63771;DHT22;60282;43.862;18.430;2022-11-20T07:08:03;8.30;99.90
63771;DHT22;60282;43.862;18.430;2022-11-20T07:10:29;8.20;99.90
63771;DHT22;60282;43.862;18.430;2022-11-20T07:12:55;8.20;99.90
63771;DHT22;60282;43.862;18.430;2022-11-20T07:15:22;8.10;99.90
63771;DHT22;60282;43.862;18.430;2022-11-20T07:17:48;8.10;99.90
63771;DHT22;60282;43.862;18.430;2022-11-20T07:20:14;8.20;99.90
63771;DHT22;60282;43.862;18.430;2022-11-20T07:22:41;8.20;99.90
63771;DHT22;60282;43.862;18.430;2022-11-20T07:25:08;8.20;99.90
63771;DHT22;60282;43.862;18.430;2022-11-20T07:27:37;8.30;99.90
63771;DHT22;60282;43.862;18.430;2022-11-20T07:30:04;8.30;99.90
63771;DHT22;60282;43.862;18.430;2022-11-20T07:32:30;10.70;99.90
63771;DHT22;60282;43.862;18.430;2022-11-20T07:34:56;8.40;99.90
63771;DHT22;60282;43.862;18.430;2022-11-20T07:37:22;8.40;99.90
63771;DHT22;60282;43.862;18.430;2022-11-20T07:39:47;8.50;99.90
63771;DHT22;60282;43.862;18.430;2022-11-20T07:42:13;8.50;99.90
63771;DHT22;60282;43.862;18.430;2022-11-20T07:44:39;8.60;99.90
63771;DHT22;60282;43.862;18.430;2022-11-20T07:47:05;8.60;99.90
63771;DHT22;60282;43.862;18.430;2022-11-20T07:49:31;8.30;99.90
63771;DHT22;60282;43.862;18.430;2022-11-20T07:51:57;8.70;99.90
63771;DHT22;60282;43.862;18.430;2022-11-20T07:54:24;8.70;99.90
63771;DHT22;60282;43.862;18.430;2022-11-20T07:56:50;8.80;99.90
63771;DHT22;60282;43.862;18.430;2022-11-20T07:59:18;8.80;99.90
63771;DHT22;60282;43.862;18.430;2022-11-20T08:01:45;8.90;99.90
63771;DHT22;60282;43.862;18.430;2022-11-20T08:04:11;8.90;99.90
63771;DHT22;60282;43.862;18.430;2022-11-20T08:06:37;8.90;99.90
63771;DHT22;60282;43.862;18.430;2022-11-20T08:09:03;8.90;99.90
63771;DHT22;60282;43.862;18.430;2022-11-20T08:11:28;8.90;99.90
63771;DHT22;60282;43.862;18.430;2022-11-20T08:14:13;8.90;99.90
63771;DHT22;60282;43.862;18.430;2022-11-20T08:16:43;8.90;99.90
63771;DHT22;60282;43.862;18.430;2022-11-20T08:19:10;8.90;99.90
63771;DHT22;60282;43.862;18.430;2022-11-20T08:21:36;8.70;99.90
63771;DHT22;60282;43.862;18.430;2022-11-20T08:24:02;9.00;99.90
63771;DHT22;60282;43.862;18.430;2022-11-20T08:28:56;9.00;99.90
63771;DHT22;60282;43.862;18.430;2022-11-20T08:31:24;9.00;99.90
63771;DHT22;60282;43.862;18.430;2022-11-20T08:33:50;9.10;99.90
63771;DHT22;60282;43.862;18.430;2022-11-20T08:36:16;9.00;99.90
63771;DHT22;60282;43.862;18.430;2022-11-20T08:38:53;9.00;99.90
63771;DHT22;60282;43.862;18.430;2022-11-20T08:41:20;9.40;99.90
63771;DHT22;60282;43.862;18.430;2022-11-20T08:43:50;9.20;99.90
63771;DHT22;60282;43.862;18.430;2022-11-20T08:46:16;9.20;99.90
63771;DHT22;60282;43.862;18.430;2022-11-20T08:48:43;9.50;99.90
63771;DHT22;60282;43.862;18.430;2022-11-20T08:51:09;9.30;99.90
63771;DHT22;60282;43.862;18.430;2022-11-20T08:53:34;9.20;99.90
63771;DHT22;60282;43.862;18.430;2022-11-20T08:56:00;9.20;99.90
63771;DHT22;60282;43.862;18.430;2022-11-20T09:00:52;9.20;99.90
63771;DHT22;60282;43.862;18.430;2022-11-20T09:03:22;9.20;99.90
63771;DHT22;60282;43.862;18.430;2022-11-20T09:05:47;9.10;99.90
63771;DHT22;60282;43.862;18.430;2022-11-20T09:08:13;9.10;99.90
63771;DHT22;60282;43.862;18.430;2022-11-20T09:10:39;9.10;99.90
63771;DHT22;60282;43.862;18.430;2022-11-20T09:13:07;8.90;99.90
63771;DHT22;60282;43.862;18.430;2022-11-20T09:15:33;8.70;99.90
63771;DHT22;60282;43.862;18.430;2022-11-20T09:18:02;8.60;99.90
63771;DHT22;60282;43.862;18.430;2022-11-20T09:20:29;8.50;99.90
63771;DHT22;60282;43.862;18.430;2022-11-20T09:22:55;8.40;99.90
63771;DHT22;60282;43.862;18.430;2022-11-20T09:25:21;8.30;99.90
63771;DHT22;60282;43.862;18.430;2022-11-20T09:28:00;8.30;99.90
63771;DHT22;60282;43.862;18.430;2022-11-20T09:30:26;8.30;99.90
63771;DHT22;60282;43.862;18.430;2022-11-20T09:32:52;8.30;99.90
63771;DHT22;60282;43.862;18.430;2022-11-20T09:35:20;8.40;99.90
63771;DHT22;60282;43.862;18.430;2022-11-20T09:37:51;8.30;99.90
63771;DHT22;60282;43.862;18.430;2022-11-20T09:40:23;8.60;99.90
63771;DHT22;60282;43.862;18.430;2022-11-20T09:46:05;8.20;99.90
63771;DHT22;60282;43.862;18.430;2022-11-20T09:48:39;10.40;99.90
63771;DHT22;60282;43.862;18.430;2022-11-20T09:54:31;8.20;99.90
63771;DHT22;60282;43.862;18.430;2022-11-20T09:57:00;8.20;99.90
63771;DHT22;60282;43.862;18.430;2022-11-20T10:02:43;8.20;99.90
63771;DHT22;60282;43.862;18.430;2022-11-20T10:05:19;8.00;99.90
63771;DHT22;60282;43.862;18.430;2022-11-20T10:08:14;8.30;99.90
63771;DHT22;60282;43.862;18.430;2022-11-20T10:10:52;8.30;99.90
63771;DHT22;60282;43.862;18.430;2022-11-20T10:22:04;8.20;99.90
63771;DHT22;60282;43.862;18.430;2022-11-20T10:24:58;8.30;99.90
63771;DHT22;60282;43.862;18.430;2022-11-20T10:32:46;8.20;99.90
63771;DHT22;60282;43.862;18.430;2022-11-20T10:35:29;8.20;99.90
63771;DHT22;60282;43.862;18.430;2022-11-20T10:38:12;8.20;99.90
63771;DHT22;60282;43.862;18.430;2022-11-20T10:40:54;7.20;99.90
63771;DHT22;60282;43.862;18.430;2022-11-20T10:46:21;8.00;99.90
63771;DHT22;60282;43.862;18.430;2022-11-20T10:48:50;7.90;99.90
63771;DHT22;60282;43.862;18.430;2022-11-20T10:54:12;7.90;99.90
63771;DHT22;60282;43.862;18.430;2022-11-20T10:56:52;6.80;99.90
63771;DHT22;60282;43.862;18.430;2022-11-20T11:01:45;7.80;99.90
63771;DHT22;60282;43.862;18.430;2022-11-20T11:07:10;4.80;99.90
63771;DHT22;60282;43.862;18.430;2022-11-20T11:09:46;7.70;99.90
63771;DHT22;60282;43.862;18.430;2022-11-20T11:12:13;7.80;99.90
63771;DHT22;60282;43.862;18.430;2022-11-20T11:14:46;7.80;99.90
63771;DHT22;60282;43.862;18.430;2022-11-20T11:17:26;7.70;99.90
63771;DHT22;60282;43.862;18.430;2022-11-20T11:20:15;7.70;99.90
63771;DHT22;60282;43.862;18.430;2022-11-20T11:22:50;7.60;99.90
63771;DHT22;60282;43.862;18.430;2022-11-20T11:25:25;7.70;99.90
63771;DHT22;60282;43.862;18.430;2022-11-20T11:27:52;7.60;99.90
63771;DHT22;60282;43.862;18.430;2022-11-20T11:30:19;7.60;99.90
63771;DHT22;60282;43.862;18.430;2022-11-20T11:32:46;7.60;99.90
63771;DHT22;60282;43.862;18.430;2022-11-20T11:35:21;7.60;99.90
63771;DHT22;60282;43.862;18.430;2022-11-20T11:40:15;5.00;99.90
63771;DHT22;60282;43.862;18.430;2022-11-20T11:42:54;7.70;99.90
63771;DHT22;60282;43.862;18.430;2022-11-20T11:45:22;7.60;99.90
63771;DHT22;60282;43.862;18.430;2022-11-20T11:47:48;7.60;99.90
63771;DHT22;60282;43.862;18.430;2022-11-20T11:50:25;7.70;99.90
63771;DHT22;60282;43.862;18.430;2022-11-20T11:53:19;7.60;99.90
63771;DHT22;60282;43.862;18.430;2022-11-20T11:55:59;7.90;99.90
63771;DHT22;60282;43.862;18.430;2022-11-20T11:58:49;8.10;99.90
63771;DHT22;60282;43.862;18.430;2022-11-20T12:01:25;9.20;99.90
63771;DHT22;60282;43.862;18.430;2022-11-20T12:07:08;7.60;99.90
63771;DHT22;60282;43.862;18.430;2022-11-20T12:09:43;7.60;99.90
63771;DHT22;60282;43.862;18.430;2022-11-20T12:12:20;7.60;99.90
63771;DHT22;60282;43.862;18.430;2022-11-20T12:14:47;7.60;99.90
63771;DHT22;60282;43.862;18.430;2022-11-20T12:17:15;7.70;99.90
63771;DHT22;60282;43.862;18.430;2022-11-20T12:19:43;7.70;99.90
63771;DHT22;60282;43.862;18.430;2022-11-20T12:25:04;7.60;99.90
63771;DHT22;60282;43.862;18.430;2022-11-20T12:30:16;7.70;99.90
63771;DHT22;60282;43.862;18.430;2022-11-20T13:04:30;7.30;99.90
63771;DHT22;60282;43.862;18.430;2022-11-20T13:07:02;7.30;99.90
63771;DHT22;60282;43.862;18.430;2022-11-20T13:09:29;7.30;99.90
63771;DHT22;60282;43.862;18.430;2022-11-20T13:12:08;7.20;99.90
63771;DHT22;60282;43.862;18.430;2022-11-20T13:17:24;7.30;99.90
63771;DHT22;60282;43.862;18.430;2022-11-20T13:19:56;7.20;99.90
63771;DHT22;60282;43.862;18.430;2022-11-20T13:22:43;7.10;99.90
63771;DHT22;60282;43.862;18.430;2022-11-20T13:25:10;6.90;99.90
63771;DHT22;60282;43.862;18.430;2022-11-20T13:27:47;7.60;99.90
63771;DHT22;60282;43.862;18.430;2022-11-20T13:30:16;6.80;99.90
63771;DHT22;60282;43.862;18.430;2022-11-20T13:33:06;6.80;99.90
63771;DHT22;60282;43.862;18.430;2022-11-20T13:35:40;6.70;99.90
63771;DHT22;60282;43.862;18.430;2022-11-20T13:43:36;6.10;99.90
63771;DHT22;60282;43.862;18.430;2022-11-20T13:46:05;6.50;99.90
63771;DHT22;60282;43.862;18.430;2022-11-20T13:48:42;6.50;99.90
63771;DHT22;60282;43.862;18.430;2022-11-20T13:59:43;6.50;99.90
63771;DHT22;60282;43.862;18.430;2022-11-20T14:02:16;6.50;99.90
63771;DHT22;60282;43.862;18.430;2022-11-20T14:05:02;6.50;99.90
63771;DHT22;60282;43.862;18.430;2022-11-20T14:07:35;6.40;99.90
63771;DHT22;60282;43.862;18.430;2022-11-20T14:10:03;6.50;99.90
63771;DHT22;60282;43.862;18.430;2022-11-20T14:12:32;6.50;99.90
63771;DHT22;60282;43.862;18.430;2022-11-20T14:14:58;8.00;99.90
63771;DHT22;60282;43.862;18.430;2022-11-20T14:17:35;6.50;99.90
63771;DHT22;60282;43.862;18.430;2022-11-20T14:20:07;6.60;99.90
63771;DHT22;60282;43.862;18.430;2022-11-20T14:22:37;6.70;99.90
63771;DHT22;60282;43.862;18.430;2022-11-20T14:25:26;6.70;99.90
63771;DHT22;60282;43.862;18.430;2022-11-20T14:28:00;6.80;99.90
63771;DHT22;60282;43.862;18.430;2022-11-20T14:30:42;6.70;99.90
63771;DHT22;60282;43.862;18.430;2022-11-20T14:33:11;6.80;99.90
63771;DHT22;60282;43.862;18.430;2022-11-20T14:35:53;6.80;99.90
63771;DHT22;60282;43.862;18.430;2022-11-20T14:38:24;6.80;99.90
63771;DHT22;60282;43.862;18.430;2022-11-20T14:40:50;6.80;99.90
63771;DHT22;60282;43.862;18.430;2022-11-20T14:43:23;6.90;99.90
63771;DHT22;60282;43.862;18.430;2022-11-20T14:46:04;6.90;99.90
63771;DHT22;60282;43.862;18.430;2022-11-20T14:48:49;6.90;99.90
63771;DHT22;60282;43.862;18.430;2022-11-20T14:54:17;6.80;99.90
63771;DHT22;60282;43.862;18.430;2022-11-20T14:56:57;6.70;99.90
63771;DHT22;60282;43.862;18.430;2022-11-20T14:59:25;6.70;99.90
63771;DHT22;60282;43.862;18.430;2022-11-20T15:02:11;6.60;99.90
63771;DHT22;60282;43.862;18.430;2022-11-20T15:04:57;6.60;99.90
63771;DHT22;60282;43.862;18.430;2022-11-20T15:07:45;6.60;99.90
63771;DHT22;60282;43.862;18.430;2022-11-20T15:10:22;6.60;99.90
63771;DHT22;60282;43.862;18.430;2022-11-20T15:12:57;6.60;99.90
63771;DHT22;60282;43.862;18.430;2022-11-20T15:15:33;6.60;99.90
63771;DHT22;60282;43.862;18.430;2022-11-20T15:18:01;6.70;99.90
63771;DHT22;60282;43.862;18.430;2022-11-20T15:20:31;6.70;99.90
63771;DHT22;60282;43.862;18.430;2022-11-20T15:22:57;6.70;99.90
63771;DHT22;60282;43.862;18.430;2022-11-20T15:25:22;6.60;99.90
63771;DHT22;60282;43.862;18.430;2022-11-20T15:27:54;6.60;99.90
63771;DHT22;60282;43.862;18.430;2022-11-20T15:30:21;6.60;99.90
63771;DHT22;60282;43.862;18.430;2022-11-20T15:32:48;6.60;99.90
63771;DHT22;60282;43.862;18.430;2022-11-20T15:35:15;6.60;99.90
63771;DHT22;60282;43.862;18.430;2022-11-20T15:37:41;6.60;99.90
63771;DHT22;60282;43.862;18.430;2022-11-20T15:40:08;6.50;99.90
63771;DHT22;60282;43.862;18.430;2022-11-20T15:42:34;6.40;99.90
63771;DHT22;60282;43.862;18.430;2022-11-20T15:45:00;6.30;99.90
63771;DHT22;60282;43.862;18.430;2022-11-20T15:47:34;6.30;99.90
63771;DHT22;60282;43.862;18.430;2022-11-20T15:50:00;6.30;99.90
63771;DHT22;60282;43.862;18.430;2022-11-20T15:52:26;6.30;99.90
63771;DHT22;60282;43.862;18.430;2022-11-20T15:54:52;6.20;99.90
63771;DHT22;60282;43.862;18.430;2022-11-20T15:57:18;6.30;99.90
63771;DHT22;60282;43.862;18.430;2022-11-20T15:59:44;6.30;99.90
63771;DHT22;60282;43.862;18.430;2022-11-20T16:02:14;6.20;99.90
63771;DHT22;60282;43.862;18.430;2022-11-20T16:04:41;6.20;99.90
63771;DHT22;60282;43.862;18.430;2022-11-20T16:07:07;6.20;99.90
63771;DHT22;60282;43.862;18.430;2022-11-20T16:09:32;6.20;99.90
63771;DHT22;60282;43.862;18.430;2022-11-20T16:11:59;6.30;99.90
63771;DHT22;60282;43.862;18.430;2022-11-20T16:14:26;6.30;99.90
63771;DHT22;60282;43.862;18.430;2022-11-20T16:17:10;6.30;99.90
63771;DHT22;60282;43.862;18.430;2022-11-20T16:19:36;6.20;99.90
63771;DHT22;60282;43.862;18.430;2022-11-20T16:22:02;6.20;99.90
63771;DHT22;60282;43.862;18.430;2022-11-20T16:24:28;6.20;99.90
63771;DHT22;60282;43.862;18.430;2022-11-20T16:26:54;6.20;99.90
63771;DHT22;60282;43.862;18.430;2022-11-20T16:29:20;6.20;99.90
63771;DHT22;60282;43.862;18.430;2022-11-20T16:31:46;6.30;99.90
63771;DHT22;60282;43.862;18.430;2022-11-20T16:34:12;6.30;99.90
63771;DHT22;60282;43.862;18.430;2022-11-20T16:36:40;6.30;99.90
63771;DHT22;60282;43.862;18.430;2022-11-20T16:39:08;6.30;99.90
63771;DHT22;60282;43.862;18.430;2022-11-20T16:41:34;6.30;99.90
63771;DHT22;60282;43.862;18.430;2022-11-20T16:44:02;6.30;99.90
63771;DHT22;60282;43.862;18.430;2022-11-20T16:46:32;6.40;99.90
63771;DHT22;60282;43.862;18.430;2022-11-20T16:49:03;6.40;99.90
63771;DHT22;60282;43.862;18.430;2022-11-20T16:51:30;6.40;99.90
63771;DHT22;60282;43.862;18.430;2022-11-20T16:53:57;6.40;99.90
63771;DHT22;60282;43.862;18.430;2022-11-20T16:56:27;6.50;99.90
63771;DHT22;60282;43.862;18.430;2022-11-20T16:58:56;6.50;99.90
63771;DHT22;60282;43.862;18.430;2022-11-20T17:01:25;6.50;99.90
63771;DHT22;60282;43.862;18.430;2022-11-20T17:04:03;6.50;99.90
63771;DHT22;60282;43.862;18.430;2022-11-20T17:06:31;6.50;99.90
63771;DHT22;60282;43.862;18.430;2022-11-20T17:11:23;6.40;99.90
63771;DHT22;60282;43.862;18.430;2022-11-20T17:13:50;7.10;99.90
63771;DHT22;60282;43.862;18.430;2022-11-20T17:16:20;6.40;99.90
63771;DHT22;60282;43.862;18.430;2022-11-20T17:23:47;6.20;99.90
63771;DHT22;60282;43.862;18.430;2022-11-20T17:26:15;6.50;99.90
63771;DHT22;60282;43.862;18.430;2022-11-20T17:28:53;6.10;99.90
63771;DHT22;60282;43.862;18.430;2022-11-20T17:33:46;6.20;99.90
63771;DHT22;60282;43.862;18.430;2022-11-20T17:36:14;6.20;99.90
63771;DHT22;60282;43.862;18.430;2022-11-20T17:41:18;6.20;99.90
63771;DHT22;60282;43.862;18.430;2022-11-20T17:43:48;6.20;99.90
63771;DHT22;60282;43.862;18.430;2022-11-20T17:46:24;6.20;99.90
63771;DHT22;60282;43.862;18.430;2022-11-20T17:51:22;6.20;99.90
63771;DHT22;60282;43.862;18.430;2022-11-20T17:53:55;6.10;99.90
63771;DHT22;60282;43.862;18.430;2022-11-20T17:56:31;6.20;99.90
63771;DHT22;60282;43.862;18.430;2022-11-20T18:01:43;6.20;99.90
63771;DHT22;60282;43.862;18.430;2022-11-20T18:04:11;6.10;99.90
63771;DHT22;60282;43.862;18.430;2022-11-20T18:06:37;6.10;99.90
63771;DHT22;60282;43.862;18.430;2022-11-20T18:09:06;6.20;99.90
63771;DHT22;60282;43.862;18.430;2022-11-20T18:11:35;6.20;99.90
63771;DHT22;60282;43.862;18.430;2022-11-20T18:14:05;6.70;99.90